Main page
Satellite images 15-day forecastsClimateMarine weather Cyclones Lightning AirportsFAQ Newsletter About
Weather : Europe Africa North America South America Asia Australia-Oceania Others
Languages Contact

Cologne, Germany

Flughafen Köln/Bonn

latitude: 50-52N, longitude: 007-10E, elevation: 91 m


METAR: EDDK 200050Z VRB03KT CAVOK 09/07 Q1009 NOSIG
short-TAF: out of date (47808 hours)
long-TAF: EDDK 191700Z 1918/2024 06010KT CAVOK BECMG 1918/1921 05005KT BECMG 2007/2010 11011KT

Time: 03:13 (01:13 UTC)

Current weather observation

The report was made 23 minutes ago, at 00:50 UTC  
Wind 03 kt from variable directions
Temperature 9°C
Humidity 87%
Pressure 1009 hPa
Visibility 10 km or more
no clouds below 1500 m and no cumulonimbus

Change units

Forecast

The report was made 7 hours and 46 minutes ago, at 17:27 UTC  
Forecast valid from 19 at 18 UTC to 20 at 24 UTC
Wind 10 kt from east/northeast
Visibility 10 km or more
no clouds below 1500 m and no cumulonimbus
Becoming
from 19 at 18 UTC to 19 at 21 UTC
Wind 05 kt from northeast
Becoming
from 20 at 07 UTC to 20 at 10 UTC
Wind 11 kt from east/southeast
The information on this site is subject to a disclaimer
Weather : Europe Africa North America South America Asia Australia-Oceania Others
Satellite images 15-day forecastsClimateMarine weather Cyclones Lightning AirportsFAQ Languages Contact Newsletter About